sensor_id;sensor_type;location;lat;lon;timestamp;temperature;humidity
33811;DHT22;20119;48.334;16.206;2024-02-26T00:01:06;6.30;99.90
33811;DHT22;20119;48.334;16.206;2024-02-26T00:03:33;6.50;99.90
33811;DHT22;20119;48.334;16.206;2024-02-26T00:06:01;6.80;99.90
33811;DHT22;20119;48.334;16.206;2024-02-26T00:08:29;6.70;99.90
33811;DHT22;20119;48.334;16.206;2024-02-26T00:10:56;6.80;99.90
33811;DHT22;20119;48.334;16.206;2024-02-26T00:13:22;6.80;99.90
33811;DHT22;20119;48.334;16.206;2024-02-26T00:15:49;6.80;99.90
33811;DHT22;20119;48.334;16.206;2024-02-26T00:18:17;6.90;99.90
33811;DHT22;20119;48.334;16.206;2024-02-26T00:20:44;7.00;99.90
33811;DHT22;20119;48.334;16.206;2024-02-26T00:23:11;7.00;99.90
33811;DHT22;20119;48.334;16.206;2024-02-26T00:25:41;7.00;99.90
33811;DHT22;20119;48.334;16.206;2024-02-26T00:33:21;7.10;99.90
33811;DHT22;20119;48.334;16.206;2024-02-26T00:35:48;7.10;99.90
33811;DHT22;20119;48.334;16.206;2024-02-26T00:38:15;7.00;99.90
33811;DHT22;20119;48.334;16.206;2024-02-26T00:40:42;7.00;99.90
33811;DHT22;20119;48.334;16.206;2024-02-26T00:43:09;7.00;99.90
33811;DHT22;20119;48.334;16.206;2024-02-26T00:45:37;7.00;99.90
33811;DHT22;20119;48.334;16.206;2024-02-26T00:48:04;7.00;99.90
33811;DHT22;20119;48.334;16.206;2024-02-26T00:50:34;6.90;99.90
33811;DHT22;20119;48.334;16.206;2024-02-26T00:53:01;7.00;99.90
33811;DHT22;20119;48.334;16.206;2024-02-26T00:55:29;7.10;99.90
33811;DHT22;20119;48.334;16.206;2024-02-26T00:57:56;7.10;99.90
33811;DHT22;20119;48.334;16.206;2024-02-26T01:00:23;7.20;99.90
33811;DHT22;20119;48.334;16.206;2024-02-26T01:02:50;7.40;99.90
33811;DHT22;20119;48.334;16.206;2024-02-26T01:05:17;7.30;99.90
33811;DHT22;20119;48.334;16.206;2024-02-26T01:07:45;7.20;99.90
33811;DHT22;20119;48.334;16.206;2024-02-26T01:10:12;7.20;99.90
33811;DHT22;20119;48.334;16.206;2024-02-26T01:17:50;7.10;99.90
33811;DHT22;20119;48.334;16.206;2024-02-26T01:20:17;7.10;99.90
33811;DHT22;20119;48.334;16.206;2024-02-26T01:22:46;7.00;99.90
33811;DHT22;20119;48.334;16.206;2024-02-26T01:25:13;7.10;99.90
33811;DHT22;20119;48.334;16.206;2024-02-26T01:27:41;6.90;99.90
33811;DHT22;20119;48.334;16.206;2024-02-26T01:30:10;6.90;99.90
33811;DHT22;20119;48.334;16.206;2024-02-26T01:32:37;6.90;99.90
33811;DHT22;20119;48.334;16.206;2024-02-26T01:37:40;6.60;99.90
33811;DHT22;20119;48.334;16.206;2024-02-26T01:40:10;6.50;99.90
33811;DHT22;20119;48.334;16.206;2024-02-26T01:50:24;6.40;99.90
33811;DHT22;20119;48.334;16.206;2024-02-26T01:52:51;6.30;99.90
33811;DHT22;20119;48.334;16.206;2024-02-26T01:55:23;6.30;99.90
33811;DHT22;20119;48.334;16.206;2024-02-26T01:57:52;6.30;99.90
33811;DHT22;20119;48.334;16.206;2024-02-26T02:00:20;6.20;99.90
33811;DHT22;20119;48.334;16.206;2024-02-26T02:02:48;6.10;99.90
33811;DHT22;20119;48.334;16.206;2024-02-26T02:07:51;6.10;99.90
33811;DHT22;20119;48.334;16.206;2024-02-26T02:10:20;6.00;99.90
33811;DHT22;20119;48.334;16.206;2024-02-26T02:12:51;5.90;99.90
33811;DHT22;20119;48.334;16.206;2024-02-26T02:15:18;5.90;99.90
33811;DHT22;20119;48.334;16.206;2024-02-26T02:17:46;5.80;99.90
33811;DHT22;20119;48.334;16.206;2024-02-26T02:20:16;6.00;99.90
33811;DHT22;20119;48.334;16.206;2024-02-26T02:22:45;5.90;99.90
33811;DHT22;20119;48.334;16.206;2024-02-26T02:25:13;5.90;99.90
33811;DHT22;20119;48.334;16.206;2024-02-26T02:27:40;5.90;99.90
33811;DHT22;20119;48.334;16.206;2024-02-26T02:32:43;6.10;99.90
33811;DHT22;20119;48.334;16.206;2024-02-26T02:35:11;5.90;99.90
33811;DHT22;20119;48.334;16.206;2024-02-26T02:37:38;5.60;99.90
33811;DHT22;20119;48.334;16.206;2024-02-26T02:40:08;5.10;99.90
33811;DHT22;20119;48.334;16.206;2024-02-26T02:42:35;4.70;99.90
33811;DHT22;20119;48.334;16.206;2024-02-26T02:45:02;4.40;99.90
33811;DHT22;20119;48.334;16.206;2024-02-26T02:47:29;4.00;99.90
33811;DHT22;20119;48.334;16.206;2024-02-26T02:49:56;3.70;99.90
33811;DHT22;20119;48.334;16.206;2024-02-26T02:52:23;3.50;99.90
33811;DHT22;20119;48.334;16.206;2024-02-26T02:54:50;3.20;99.90
33811;DHT22;20119;48.334;16.206;2024-02-26T02:57:19;2.80;99.90
33811;DHT22;20119;48.334;16.206;2024-02-26T02:59:46;2.40;99.90
33811;DHT22;20119;48.334;16.206;2024-02-26T03:02:13;2.20;99.90
33811;DHT22;20119;48.334;16.206;2024-02-26T03:04:41;2.10;99.90
33811;DHT22;20119;48.334;16.206;2024-02-26T03:07:08;1.80;99.90
33811;DHT22;20119;48.334;16.206;2024-02-26T03:09:35;1.80;99.90
33811;DHT22;20119;48.334;16.206;2024-02-26T03:12:02;1.90;99.90
33811;DHT22;20119;48.334;16.206;2024-02-26T03:14:30;1.90;99.90
33811;DHT22;20119;48.334;16.206;2024-02-26T03:16:57;2.00;99.90
33811;DHT22;20119;48.334;16.206;2024-02-26T03:19:24;2.20;99.90
33811;DHT22;20119;48.334;16.206;2024-02-26T03:21:52;2.50;99.90
33811;DHT22;20119;48.334;16.206;2024-02-26T03:24:19;3.50;99.90
33811;DHT22;20119;48.334;16.206;2024-02-26T03:29:21;5.00;99.90
33811;DHT22;20119;48.334;16.206;2024-02-26T03:31:49;5.40;99.90
33811;DHT22;20119;48.334;16.206;2024-02-26T03:39:27;5.90;99.90
33811;DHT22;20119;48.334;16.206;2024-02-26T03:41:54;5.80;99.90
33811;DHT22;20119;48.334;16.206;2024-02-26T03:54:44;5.00;99.90
33811;DHT22;20119;48.334;16.206;2024-02-26T03:57:11;4.30;99.90
33811;DHT22;20119;48.334;16.206;2024-02-26T03:59:38;3.70;99.90
33811;DHT22;20119;48.334;16.206;2024-02-26T04:02:06;2.90;99.90
33811;DHT22;20119;48.334;16.206;2024-02-26T04:04:34;2.40;99.90
33811;DHT22;20119;48.334;16.206;2024-02-26T04:07:01;1.80;99.90
33811;DHT22;20119;48.334;16.206;2024-02-26T04:09:30;1.70;99.90
33811;DHT22;20119;48.334;16.206;2024-02-26T04:11:59;1.30;99.90
33811;DHT22;20119;48.334;16.206;2024-02-26T04:14:26;1.10;99.90
33811;DHT22;20119;48.334;16.206;2024-02-26T04:16:53;1.00;99.90
33811;DHT22;20119;48.334;16.206;2024-02-26T04:19:20;0.80;99.90
33811;DHT22;20119;48.334;16.206;2024-02-26T04:21:47;0.70;99.90
33811;DHT22;20119;48.334;16.206;2024-02-26T04:24:14;0.70;99.90
33811;DHT22;20119;48.334;16.206;2024-02-26T04:26:41;0.50;99.90
33811;DHT22;20119;48.334;16.206;2024-02-26T04:29:10;0.40;99.90
33811;DHT22;20119;48.334;16.206;2024-02-26T04:31:37;0.30;99.90
33811;DHT22;20119;48.334;16.206;2024-02-26T04:34:05;0.30;99.90
33811;DHT22;20119;48.334;16.206;2024-02-26T04:36:32;0.20;99.90
33811;DHT22;20119;48.334;16.206;2024-02-26T04:38:59;0.10;99.90
33811;DHT22;20119;48.334;16.206;2024-02-26T04:41:26;0.00;99.90
33811;DHT22;20119;48.334;16.206;2024-02-26T04:43:54;-0.10;99.90
33811;DHT22;20119;48.334;16.206;2024-02-26T04:48:53;-0.20;99.90
33811;DHT22;20119;48.334;16.206;2024-02-26T04:51:20;-0.40;99.90
33811;DHT22;20119;48.334;16.206;2024-02-26T04:53:47;-0.40;99.90
33811;DHT22;20119;48.334;16.206;2024-02-26T04:56:14;-0.50;99.90
33811;DHT22;20119;48.334;16.206;2024-02-26T04:58:41;-0.40;99.90
33811;DHT22;20119;48.334;16.206;2024-02-26T05:01:09;-0.50;99.90
33811;DHT22;20119;48.334;16.206;2024-02-26T05:03:37;-0.70;99.90
33811;DHT22;20119;48.334;16.206;2024-02-26T05:06:05;-0.80;99.90
33811;DHT22;20119;48.334;16.206;2024-02-26T05:08:33;-0.80;99.90
33811;DHT22;20119;48.334;16.206;2024-02-26T05:11:01;-0.80;99.90
33811;DHT22;20119;48.334;16.206;2024-02-26T05:13:29;-0.90;99.90
33811;DHT22;20119;48.334;16.206;2024-02-26T05:15:56;-0.90;99.90
33811;DHT22;20119;48.334;16.206;2024-02-26T05:18:24;-1.00;99.90
33811;DHT22;20119;48.334;16.206;2024-02-26T05:20:51;-1.00;99.90
33811;DHT22;20119;48.334;16.206;2024-02-26T05:23:20;-1.00;99.90
33811;DHT22;20119;48.334;16.206;2024-02-26T05:28:22;-1.10;99.90
33811;DHT22;20119;48.334;16.206;2024-02-26T05:30:49;-1.10;99.90
33811;DHT22;20119;48.334;16.206;2024-02-26T05:33:16;-1.10;99.90
33811;DHT22;20119;48.334;16.206;2024-02-26T05:35:43;-1.10;99.90
33811;DHT22;20119;48.334;16.206;2024-02-26T05:38:10;-1.00;99.90
33811;DHT22;20119;48.334;16.206;2024-02-26T05:40:39;-1.10;99.90
33811;DHT22;20119;48.334;16.206;2024-02-26T05:45:41;-1.20;99.90
33811;DHT22;20119;48.334;16.206;2024-02-26T05:48:08;-1.20;99.90
33811;DHT22;20119;48.334;16.206;2024-02-26T05:50:35;-1.10;99.90
33811;DHT22;20119;48.334;16.206;2024-02-26T05:53:02;-1.10;99.90
33811;DHT22;20119;48.334;16.206;2024-02-26T05:58:06;-1.10;99.90
33811;DHT22;20119;48.334;16.206;2024-02-26T06:00:33;-1.10;99.90
33811;DHT22;20119;48.334;16.206;2024-02-26T06:03:00;-1.10;99.90
33811;DHT22;20119;48.334;16.206;2024-02-26T06:05:27;-1.00;99.90
33811;DHT22;20119;48.334;16.206;2024-02-26T06:07:55;-1.00;99.90
33811;DHT22;20119;48.334;16.206;2024-02-26T06:10:22;-0.90;99.90
33811;DHT22;20119;48.334;16.206;2024-02-26T06:18:01;-0.80;99.90
33811;DHT22;20119;48.334;16.206;2024-02-26T06:20:28;-0.80;99.90
33811;DHT22;20119;48.334;16.206;2024-02-26T06:22:55;-0.70;99.90
33811;DHT22;20119;48.334;16.206;2024-02-26T06:25:22;-0.70;99.90
33811;DHT22;20119;48.334;16.206;2024-02-26T06:30:24;-0.70;99.90
33811;DHT22;20119;48.334;16.206;2024-02-26T06:32:51;-0.50;99.90
33811;DHT22;20119;48.334;16.206;2024-02-26T06:40:30;-0.20;99.90
33811;DHT22;20119;48.334;16.206;2024-02-26T06:50:44;0.20;99.90
33811;DHT22;20119;48.334;16.206;2024-02-26T06:53:11;0.30;99.90
33811;DHT22;20119;48.334;16.206;2024-02-26T07:00:50;0.60;99.90
33811;DHT22;20119;48.334;16.206;2024-02-26T07:03:17;0.90;99.90
33811;DHT22;20119;48.334;16.206;2024-02-26T07:05:44;1.00;99.90
33811;DHT22;20119;48.334;16.206;2024-02-26T07:10:47;1.10;99.90
33811;DHT22;20119;48.334;16.206;2024-02-26T07:13:14;1.20;99.90
33811;DHT22;20119;48.334;16.206;2024-02-26T07:18:18;1.80;99.90
33811;DHT22;20119;48.334;16.206;2024-02-26T07:23:20;2.50;99.90
33811;DHT22;20119;48.334;16.206;2024-02-26T07:25:47;3.30;99.90
33811;DHT22;20119;48.334;16.206;2024-02-26T07:28:15;4.00;99.90
33811;DHT22;20119;48.334;16.206;2024-02-26T07:33:19;4.80;99.90
33811;DHT22;20119;48.334;16.206;2024-02-26T07:35:46;4.70;99.90
33811;DHT22;20119;48.334;16.206;2024-02-26T07:38:13;5.10;99.90
33811;DHT22;20119;48.334;16.206;2024-02-26T07:40:41;5.30;99.90
33811;DHT22;20119;48.334;16.206;2024-02-26T07:45:43;5.60;99.90
33811;DHT22;20119;48.334;16.206;2024-02-26T07:48:10;5.50;99.90
33811;DHT22;20119;48.334;16.206;2024-02-26T07:50:40;5.60;99.90
33811;DHT22;20119;48.334;16.206;2024-02-26T07:53:08;6.20;99.90
33811;DHT22;20119;48.334;16.206;2024-02-26T07:55:35;6.90;99.90
33811;DHT22;20119;48.334;16.206;2024-02-26T07:58:02;6.80;99.90
33811;DHT22;20119;48.334;16.206;2024-02-26T08:00:29;6.70;99.90
33811;DHT22;20119;48.334;16.206;2024-02-26T08:02:56;6.80;99.90
33811;DHT22;20119;48.334;16.206;2024-02-26T08:05:24;6.80;99.90
33811;DHT22;20119;48.334;16.206;2024-02-26T08:07:53;7.00;99.90
33811;DHT22;20119;48.334;16.206;2024-02-26T08:10:21;6.90;99.90
33811;DHT22;20119;48.334;16.206;2024-02-26T08:12:48;7.60;99.90
33811;DHT22;20119;48.334;16.206;2024-02-26T08:15:15;7.90;99.90
33811;DHT22;20119;48.334;16.206;2024-02-26T08:17:44;8.60;99.90
33811;DHT22;20119;48.334;16.206;2024-02-26T08:20:13;8.60;99.90
33811;DHT22;20119;48.334;16.206;2024-02-26T08:22:40;8.40;99.90
33811;DHT22;20119;48.334;16.206;2024-02-26T08:25:09;9.10;99.90
33811;DHT22;20119;48.334;16.206;2024-02-26T08:35:42;9.80;99.90
33811;DHT22;20119;48.334;16.206;2024-02-26T08:38:09;9.70;99.90
33811;DHT22;20119;48.334;16.206;2024-02-26T08:40:38;10.30;99.90
33811;DHT22;20119;48.334;16.206;2024-02-26T08:43:05;10.90;99.90
33811;DHT22;20119;48.334;16.206;2024-02-26T08:48:07;10.90;99.90
33811;DHT22;20119;48.334;16.206;2024-02-26T08:50:35;10.90;99.90
33811;DHT22;20119;48.334;16.206;2024-02-26T08:53:02;10.90;99.90
33811;DHT22;20119;48.334;16.206;2024-02-26T08:55:29;10.60;99.90
33811;DHT22;20119;48.334;16.206;2024-02-26T08:57:59;10.90;99.90
33811;DHT22;20119;48.334;16.206;2024-02-26T09:00:26;11.10;99.90
33811;DHT22;20119;48.334;16.206;2024-02-26T09:05:28;12.00;99.90
33811;DHT22;20119;48.334;16.206;2024-02-26T09:07:55;12.60;99.90
33811;DHT22;20119;48.334;16.206;2024-02-26T09:10:22;12.80;99.90
33811;DHT22;20119;48.334;16.206;2024-02-26T09:12:50;12.90;99.90
33811;DHT22;20119;48.334;16.206;2024-02-26T09:15:18;12.50;99.90
33811;DHT22;20119;48.334;16.206;2024-02-26T09:17:45;12.70;99.90
33811;DHT22;20119;48.334;16.206;2024-02-26T09:20:15;12.30;99.90
33811;DHT22;20119;48.334;16.206;2024-02-26T09:22:45;12.20;99.90
33811;DHT22;20119;48.334;16.206;2024-02-26T09:25:12;11.30;99.90
33811;DHT22;20119;48.334;16.206;2024-02-26T09:27:50;11.40;99.90
33811;DHT22;20119;48.334;16.206;2024-02-26T09:32:54;10.90;99.90
33811;DHT22;20119;48.334;16.206;2024-02-26T09:38:01;11.40;99.90
33811;DHT22;20119;48.334;16.206;2024-02-26T09:40:29;10.70;99.90
33811;DHT22;20119;48.334;16.206;2024-02-26T09:42:59;10.80;99.90
33811;DHT22;20119;48.334;16.206;2024-02-26T09:45:28;10.80;99.90
33811;DHT22;20119;48.334;16.206;2024-02-26T09:47:57;10.80;99.90
33811;DHT22;20119;48.334;16.206;2024-02-26T09:50:27;11.10;99.90
33811;DHT22;20119;48.334;16.206;2024-02-26T09:52:54;11.40;99.90
33811;DHT22;20119;48.334;16.206;2024-02-26T09:55:23;11.00;99.90
33811;DHT22;20119;48.334;16.206;2024-02-26T09:57:51;11.50;99.90
33811;DHT22;20119;48.334;16.206;2024-02-26T10:00:20;11.40;99.90
33811;DHT22;20119;48.334;16.206;2024-02-26T10:02:48;11.00;99.90
33811;DHT22;20119;48.334;16.206;2024-02-26T10:05:18;11.20;99.90
33811;DHT22;20119;48.334;16.206;2024-02-26T10:10:18;11.20;99.90
33811;DHT22;20119;48.334;16.206;2024-02-26T10:17:56;11.70;99.90
33811;DHT22;20119;48.334;16.206;2024-02-26T10:20:25;11.70;99.90
33811;DHT22;20119;48.334;16.206;2024-02-26T10:25:29;12.20;99.90
33811;DHT22;20119;48.334;16.206;2024-02-26T10:28:00;12.20;99.90
33811;DHT22;20119;48.334;16.206;2024-02-26T10:30:28;12.40;99.90
33811;DHT22;20119;48.334;16.206;2024-02-26T10:32:55;12.50;99.90
33811;DHT22;20119;48.334;16.206;2024-02-26T10:35:22;12.10;99.90
33811;DHT22;20119;48.334;16.206;2024-02-26T10:37:51;12.00;99.90
33811;DHT22;20119;48.334;16.206;2024-02-26T10:40:19;12.10;99.90
33811;DHT22;20119;48.334;16.206;2024-02-26T10:42:46;12.30;99.90
33811;DHT22;20119;48.334;16.206;2024-02-26T10:45:13;12.20;99.90
33811;DHT22;20119;48.334;16.206;2024-02-26T10:47:41;12.30;99.90
33811;DHT22;20119;48.334;16.206;2024-02-26T10:50:09;12.60;99.90
33811;DHT22;20119;48.334;16.206;2024-02-26T10:52:36;12.80;99.90
33811;DHT22;20119;48.334;16.206;2024-02-26T11:00:16;12.40;99.90
33811;DHT22;20119;48.334;16.206;2024-02-26T11:02:45;12.40;99.90
33811;DHT22;20119;48.334;16.206;2024-02-26T11:05:13;12.50;99.90
33811;DHT22;20119;48.334;16.206;2024-02-26T11:07:41;12.70;99.90
33811;DHT22;20119;48.334;16.206;2024-02-26T11:10:11;12.80;99.90
33811;DHT22;20119;48.334;16.206;2024-02-26T11:12:39;12.60;99.90
33811;DHT22;20119;48.334;16.206;2024-02-26T11:20:19;13.20;99.90
33811;DHT22;20119;48.334;16.206;2024-02-26T11:22:46;13.30;99.90
33811;DHT22;20119;48.334;16.206;2024-02-26T11:25:14;13.40;99.90
33811;DHT22;20119;48.334;16.206;2024-02-26T11:27:46;13.50;99.90
33811;DHT22;20119;48.334;16.206;2024-02-26T11:30:15;13.60;99.90
33811;DHT22;20119;48.334;16.206;2024-02-26T11:32:44;13.60;99.90
33811;DHT22;20119;48.334;16.206;2024-02-26T11:35:12;13.60;99.90
33811;DHT22;20119;48.334;16.206;2024-02-26T11:37:51;13.80;99.90
33811;DHT22;20119;48.334;16.206;2024-02-26T11:40:24;13.90;99.90
33811;DHT22;20119;48.334;16.206;2024-02-26T11:42:55;14.10;99.90
33811;DHT22;20119;48.334;16.206;2024-02-26T11:45:49;13.90;99.90
33811;DHT22;20119;48.334;16.206;2024-02-26T11:48:24;13.90;99.90
33811;DHT22;20119;48.334;16.206;2024-02-26T11:50:58;13.80;99.90
33811;DHT22;20119;48.334;16.206;2024-02-26T11:56:34;13.70;99.90
33811;DHT22;20119;48.334;16.206;2024-02-26T12:07:31;14.10;99.90
33811;DHT22;20119;48.334;16.206;2024-02-26T12:10:16;14.20;99.90
33811;DHT22;20119;48.334;16.206;2024-02-26T12:12:49;14.20;99.90
33811;DHT22;20119;48.334;16.206;2024-02-26T12:17:53;14.40;99.90
33811;DHT22;20119;48.334;16.206;2024-02-26T12:20:22;14.40;99.90
33811;DHT22;20119;48.334;16.206;2024-02-26T12:22:56;14.40;99.90
33811;DHT22;20119;48.334;16.206;2024-02-26T12:35:54;14.50;99.90
33811;DHT22;20119;48.334;16.206;2024-02-26T12:38:24;14.60;99.90
33811;DHT22;20119;48.334;16.206;2024-02-26T12:51:19;14.50;99.90
33811;DHT22;20119;48.334;16.206;2024-02-26T12:53:47;14.50;99.90
33811;DHT22;20119;48.334;16.206;2024-02-26T12:56:16;14.50;99.90
33811;DHT22;20119;48.334;16.206;2024-02-26T12:58:43;14.50;99.90
33811;DHT22;20119;48.334;16.206;2024-02-26T13:01:19;14.60;99.90
33811;DHT22;20119;48.334;16.206;2024-02-26T13:11:28;14.90;99.90
33811;DHT22;20119;48.334;16.206;2024-02-26T13:13:56;14.90;99.90
33811;DHT22;20119;48.334;16.206;2024-02-26T13:16:24;14.90;99.90
33811;DHT22;20119;48.334;16.206;2024-02-26T13:18:52;14.70;99.90
33811;DHT22;20119;48.334;16.206;2024-02-26T13:21:19;14.40;99.90
33811;DHT22;20119;48.334;16.206;2024-02-26T13:23:51;14.30;99.90
33811;DHT22;20119;48.334;16.206;2024-02-26T13:26:22;14.50;99.90
33811;DHT22;20119;48.334;16.206;2024-02-26T13:29:00;14.40;99.90
33811;DHT22;20119;48.334;16.206;2024-02-26T13:34:04;14.20;99.90
33811;DHT22;20119;48.334;16.206;2024-02-26T13:36:31;14.10;99.90
33811;DHT22;20119;48.334;16.206;2024-02-26T13:38:58;14.00;99.90
33811;DHT22;20119;48.334;16.206;2024-02-26T13:41:25;14.00;99.90
33811;DHT22;20119;48.334;16.206;2024-02-26T13:43:52;14.00;99.90
33811;DHT22;20119;48.334;16.206;2024-02-26T13:46:21;13.80;99.90
33811;DHT22;20119;48.334;16.206;2024-02-26T13:48:48;13.80;99.90
33811;DHT22;20119;48.334;16.206;2024-02-26T13:51:15;13.70;99.90
33811;DHT22;20119;48.334;16.206;2024-02-26T13:53:43;13.70;99.90
33811;DHT22;20119;48.334;16.206;2024-02-26T14:01:22;13.70;99.90
33811;DHT22;20119;48.334;16.206;2024-02-26T14:03:49;13.80;99.90
33811;DHT22;20119;48.334;16.206;2024-02-26T14:06:16;13.90;99.90
33811;DHT22;20119;48.334;16.206;2024-02-26T14:13:55;13.60;99.90
33811;DHT22;20119;48.334;16.206;2024-02-26T14:16:24;13.60;99.90
33811;DHT22;20119;48.334;16.206;2024-02-26T14:18:51;13.80;99.90
33811;DHT22;20119;48.334;16.206;2024-02-26T14:21:18;13.60;99.90
33811;DHT22;20119;48.334;16.206;2024-02-26T14:23:46;13.60;99.90
33811;DHT22;20119;48.334;16.206;2024-02-26T14:26:13;13.70;99.90
33811;DHT22;20119;48.334;16.206;2024-02-26T14:28:40;13.70;99.90
33811;DHT22;20119;48.334;16.206;2024-02-26T14:31:07;13.70;99.90
33811;DHT22;20119;48.334;16.206;2024-02-26T14:33:39;13.60;99.90
33811;DHT22;20119;48.334;16.206;2024-02-26T14:36:06;13.60;99.90
33811;DHT22;20119;48.334;16.206;2024-02-26T14:41:09;13.50;99.90
33811;DHT22;20119;48.334;16.206;2024-02-26T14:43:37;13.30;99.90
33811;DHT22;20119;48.334;16.206;2024-02-26T14:46:04;13.30;99.90
33811;DHT22;20119;48.334;16.206;2024-02-26T14:48:31;13.30;99.90
33811;DHT22;20119;48.334;16.206;2024-02-26T14:50:59;13.30;99.90
33811;DHT22;20119;48.334;16.206;2024-02-26T14:53:27;13.30;99.90
33811;DHT22;20119;48.334;16.206;2024-02-26T15:01:04;13.30;99.90
33811;DHT22;20119;48.334;16.206;2024-02-26T15:03:32;13.30;99.90
33811;DHT22;20119;48.334;16.206;2024-02-26T15:06:01;13.20;99.90
33811;DHT22;20119;48.334;16.206;2024-02-26T15:11:04;12.90;99.90
33811;DHT22;20119;48.334;16.206;2024-02-26T15:13:31;12.80;99.90
33811;DHT22;20119;48.334;16.206;2024-02-26T15:15:58;12.70;99.90
33811;DHT22;20119;48.334;16.206;2024-02-26T15:18:25;12.80;99.90
33811;DHT22;20119;48.334;16.206;2024-02-26T15:20:53;12.70;99.90
33811;DHT22;20119;48.334;16.206;2024-02-26T15:23:21;12.60;99.90
33811;DHT22;20119;48.334;16.206;2024-02-26T15:25:48;12.60;99.90
33811;DHT22;20119;48.334;16.206;2024-02-26T15:28:16;12.40;99.90
33811;DHT22;20119;48.334;16.206;2024-02-26T15:30:43;12.40;99.90
33811;DHT22;20119;48.334;16.206;2024-02-26T15:33:10;12.30;99.90
33811;DHT22;20119;48.334;16.206;2024-02-26T15:35:37;12.40;99.90
33811;DHT22;20119;48.334;16.206;2024-02-26T15:38:04;12.30;99.90
33811;DHT22;20119;48.334;16.206;2024-02-26T15:40:33;12.40;99.90
33811;DHT22;20119;48.334;16.206;2024-02-26T15:43:00;12.40;99.90
33811;DHT22;20119;48.334;16.206;2024-02-26T15:45:27;12.40;99.90
33811;DHT22;20119;48.334;16.206;2024-02-26T15:47:58;12.30;99.90
33811;DHT22;20119;48.334;16.206;2024-02-26T15:55:37;12.20;99.90
33811;DHT22;20119;48.334;16.206;2024-02-26T15:58:08;12.20;99.90
33811;DHT22;20119;48.334;16.206;2024-02-26T16:00:39;12.20;99.90
33811;DHT22;20119;48.334;16.206;2024-02-26T16:03:07;12.10;99.90
33811;DHT22;20119;48.334;16.206;2024-02-26T16:05:34;12.20;99.90
33811;DHT22;20119;48.334;16.206;2024-02-26T16:08:05;12.20;99.90
33811;DHT22;20119;48.334;16.206;2024-02-26T16:15:48;12.20;99.90
33811;DHT22;20119;48.334;16.206;2024-02-26T16:18:16;12.20;99.90
33811;DHT22;20119;48.334;16.206;2024-02-26T16:20:44;12.10;99.90
33811;DHT22;20119;48.334;16.206;2024-02-26T16:23:11;12.00;99.90
33811;DHT22;20119;48.334;16.206;2024-02-26T16:28:13;12.10;99.90
33811;DHT22;20119;48.334;16.206;2024-02-26T16:30:41;11.90;99.90
33811;DHT22;20119;48.334;16.206;2024-02-26T16:35:37;12.00;99.90
33811;DHT22;20119;48.334;16.206;2024-02-26T16:38:04;11.90;99.90
33811;DHT22;20119;48.334;16.206;2024-02-26T16:40:31;11.90;99.90
33811;DHT22;20119;48.334;16.206;2024-02-26T16:42:58;11.80;99.90
33811;DHT22;20119;48.334;16.206;2024-02-26T16:45:25;11.80;99.90
33811;DHT22;20119;48.334;16.206;2024-02-26T16:47:53;11.70;99.90
33811;DHT22;20119;48.334;16.206;2024-02-26T16:50:21;11.80;99.90
33811;DHT22;20119;48.334;16.206;2024-02-26T16:52:49;11.70;99.90
33811;DHT22;20119;48.334;16.206;2024-02-26T16:55:16;11.80;99.90
33811;DHT22;20119;48.334;16.206;2024-02-26T16:57:43;11.80;99.90
33811;DHT22;20119;48.334;16.206;2024-02-26T17:00:11;11.70;99.90
33811;DHT22;20119;48.334;16.206;2024-02-26T17:02:42;11.80;99.90
33811;DHT22;20119;48.334;16.206;2024-02-26T17:05:10;11.80;99.90
33811;DHT22;20119;48.334;16.206;2024-02-26T17:07:39;11.80;99.90
33811;DHT22;20119;48.334;16.206;2024-02-26T17:10:09;11.80;99.90
33811;DHT22;20119;48.334;16.206;2024-02-26T17:12:37;11.80;99.90
33811;DHT22;20119;48.334;16.206;2024-02-26T17:15:05;11.80;99.90
33811;DHT22;20119;48.334;16.206;2024-02-26T17:17:33;11.90;99.90
33811;DHT22;20119;48.334;16.206;2024-02-26T17:20:00;11.80;99.90
33811;DHT22;20119;48.334;16.206;2024-02-26T17:22:29;11.80;99.90
33811;DHT22;20119;48.334;16.206;2024-02-26T17:24:56;11.90;99.90
33811;DHT22;20119;48.334;16.206;2024-02-26T17:27:24;11.80;99.90
33811;DHT22;20119;48.334;16.206;2024-02-26T17:29:51;11.90;99.90
33811;DHT22;20119;48.334;16.206;2024-02-26T17:32:18;11.90;99.90
33811;DHT22;20119;48.334;16.206;2024-02-26T17:34:45;12.00;99.90
33811;DHT22;20119;48.334;16.206;2024-02-26T17:37:13;11.90;99.90
33811;DHT22;20119;48.334;16.206;2024-02-26T17:39:41;12.00;99.90
33811;DHT22;20119;48.334;16.206;2024-02-26T17:42:08;11.90;99.90
33811;DHT22;20119;48.334;16.206;2024-02-26T17:44:37;11.90;99.90
33811;DHT22;20119;48.334;16.206;2024-02-26T17:47:05;11.90;99.90
33811;DHT22;20119;48.334;16.206;2024-02-26T17:49:32;11.90;99.90
33811;DHT22;20119;48.334;16.206;2024-02-26T17:51:59;11.80;99.90
33811;DHT22;20119;48.334;16.206;2024-02-26T17:54:27;11.90;99.90
33811;DHT22;20119;48.334;16.206;2024-02-26T17:56:54;11.90;99.90
33811;DHT22;20119;48.334;16.206;2024-02-26T17:59:22;11.90;99.90
33811;DHT22;20119;48.334;16.206;2024-02-26T18:01:51;11.90;99.90
33811;DHT22;20119;48.334;16.206;2024-02-26T18:04:18;11.90;99.90
33811;DHT22;20119;48.334;16.206;2024-02-26T18:06:45;11.80;99.90
33811;DHT22;20119;48.334;16.206;2024-02-26T18:09:12;11.90;99.90
33811;DHT22;20119;48.334;16.206;2024-02-26T18:11:43;11.80;99.90
33811;DHT22;20119;48.334;16.206;2024-02-26T18:14:10;11.80;99.90
33811;DHT22;20119;48.334;16.206;2024-02-26T18:16:37;11.70;99.90
33811;DHT22;20119;48.334;16.206;2024-02-26T18:19:06;11.80;99.90
33811;DHT22;20119;48.334;16.206;2024-02-26T18:21:33;11.70;99.90
33811;DHT22;20119;48.334;16.206;2024-02-26T18:24:00;11.80;99.90
33811;DHT22;20119;48.334;16.206;2024-02-26T18:26:27;11.70;99.90
33811;DHT22;20119;48.334;16.206;2024-02-26T18:31:29;11.60;99.90
33811;DHT22;20119;48.334;16.206;2024-02-26T18:33:56;11.60;99.90
33811;DHT22;20119;48.334;16.206;2024-02-26T18:36:25;11.70;99.90
33811;DHT22;20119;48.334;16.206;2024-02-26T18:38:53;11.70;99.90
33811;DHT22;20119;48.334;16.206;2024-02-26T18:41:20;11.70;99.90
33811;DHT22;20119;48.334;16.206;2024-02-26T18:43:48;11.60;99.90
33811;DHT22;20119;48.334;16.206;2024-02-26T18:46:16;11.60;99.90
33811;DHT22;20119;48.334;16.206;2024-02-26T18:48:43;11.50;99.90
33811;DHT22;20119;48.334;16.206;2024-02-26T18:51:10;11.50;99.90
33811;DHT22;20119;48.334;16.206;2024-02-26T18:53:39;11.50;99.90
33811;DHT22;20119;48.334;16.206;2024-02-26T18:56:07;11.50;99.90
33811;DHT22;20119;48.334;16.206;2024-02-26T18:58:34;11.40;99.90
33811;DHT22;20119;48.334;16.206;2024-02-26T19:01:01;11.30;99.90